Time;durP1;ratioP1;P1;durP2;ratioP2;P2;SDS_P1;SDS_P2;PMS_P1;PMS_P2;Temp;Humidity;BMP_temperature;BMP_pressure;BME280_temperature;BME280_humidity;BME280_pressure;Samples;Min_cycle;Max_cycle;Signal;HPM_P1;HPM_P2
2021/07/16 04:53:54;;;;;;;;;;;;;;;32.50;48.91;99974.02;1824769;77;20227;-65
2021/07/16 04:56:21;;;;;;;;;;;;;;;32.33;48.89;99977.09;1796698;78;20086;-65
2021/07/16 04:58:48;;;;;;;;;;;;;;;32.14;49.26;99979.79;1789298;78;20995;-65
2021/07/16 05:01:16;;;;;;;;;;;;;;;32.19;50.09;99983.67;1786035;78;20663;-66
2021/07/16 05:03:43;;;;;;;;;;;;;;;32.42;50.55;99974.34;1805229;78;20135;-64
2021/07/16 05:06:13;;;;;;;;;;;;;;;32.70;49.91;99979.13;1800162;78;20151;-72
2021/07/16 05:08:42;;;;;;;;;;;;;;;32.91;49.19;99978.58;1787374;78;20429;-68
2021/07/16 05:11:09;;;;;;;;;;;;;;;32.98;48.74;99972.55;1795756;78;21511;-74
2021/07/16 05:13:37;;;;;;;;;;;;;;;33.02;48.72;99972.91;1793733;78;20193;-71
2021/07/16 05:16:04;;;;;;;;;;;;;;;33.18;48.70;99972.73;1786435;78;20153;-72
2021/07/16 05:18:32;;;;;;;;;;;;;;;33.22;47.98;99976.58;1790710;78;20185;-71
2021/07/16 05:21:00;;;;;;;;;;;;;;;33.26;48.02;99973.70;1791668;78;20461;-70
2021/07/16 05:23:28;;;;;;;;;;;;;;;33.40;47.79;99976.50;1800636;78;21076;-69
2021/07/16 05:25:54;;;;;;;;;;;;;;;33.54;46.45;99976.55;1785504;78;20474;-70
2021/07/16 05:28:21;;;;;;;;;;;;;;;33.48;45.89;99978.84;1794651;80;20070;-69
2021/07/16 05:30:48;;;;;;;;;;;;;;;33.47;46.15;99977.20;1800620;78;20169;-72
2021/07/16 05:33:17;;;;;;;;;;;;;;;33.60;45.84;99975.56;1791272;78;20086;-74
2021/07/16 05:35:48;;;;;;;;;;;;;;;33.79;44.90;99984.38;1778883;78;21136;-71
2021/07/16 05:38:15;;;;;;;;;;;;;;;33.71;44.25;99980.66;1795888;78;20416;-73
2021/07/16 05:40:49;;;;;;;;;;;;;;;33.67;44.70;99978.96;1793731;78;20163;-69
2021/07/16 05:43:16;;;;;;;;;;;;;;;33.73;44.40;99973.14;1792205;80;20114;-71
2021/07/16 05:45:43;;;;;;;;;;;;;;;33.78;44.00;99968.66;1781162;78;20110;-69
2021/07/16 05:48:10;;;;;;;;;;;;;;;33.88;44.46;99977.55;1791712;78;21145;-69
2021/07/16 05:50:41;;;;;;;;;;;;;;;34.08;44.21;99977.10;1796150;78;20129;-70
2021/07/16 05:53:08;;;;;;;;;;;;;;;34.15;43.16;99982.37;1800122;78;20163;-70
2021/07/16 05:55:35;;;;;;;;;;;;;;;34.06;42.98;99979.22;1780592;79;20161;-70
2021/07/16 05:58:03;;;;;;;;;;;;;;;34.04;42.72;99984.87;1781504;79;20181;-69
2021/07/16 06:00:30;;;;;;;;;;;;;;;33.98;42.55;99984.50;1783995;79;21090;-70
2021/07/16 06:02:57;;;;;;;;;;;;;;;33.82;42.94;99987.13;1781289;79;20110;-69
2021/07/16 06:05:25;;;;;;;;;;;;;;;33.74;42.38;99979.66;1776148;79;20085;-71
2021/07/16 06:07:51;;;;;;;;;;;;;;;33.71;43.09;99980.13;1786310;78;20182;-70
2021/07/16 06:10:21;;;;;;;;;;;;;;;33.81;43.53;99981.44;1791310;78;20102;-71
2021/07/16 06:12:48;;;;;;;;;;;;;;;33.88;42.52;99982.95;1789627;78;21147;-69
2021/07/16 06:15:17;;;;;;;;;;;;;;;33.91;42.87;99987.05;1795396;78;20103;-69
2021/07/16 06:17:45;;;;;;;;;;;;;;;33.81;41.70;99990.89;1808996;78;20157;-69
2021/07/16 06:20:13;;;;;;;;;;;;;;;33.46;42.60;99985.83;1780489;80;20433;-70
2021/07/16 06:22:40;;;;;;;;;;;;;;;33.23;42.51;99986.32;1788237;79;20112;-71
2021/07/16 06:25:07;;;;;;;;;;;;;;;33.09;42.32;99985.23;1807110;78;21099;-69
2021/07/16 06:27:34;;;;;;;;;;;;;;;32.81;42.70;99991.28;1781120;79;20495;-70
2021/07/16 06:30:01;;;;;;;;;;;;;;;32.48;43.56;99990.42;1790645;79;20434;-73
2021/07/16 06:32:29;;;;;;;;;;;;;;;32.36;44.55;99990.94;1796807;79;20066;-72
2021/07/16 06:34:55;;;;;;;;;;;;;;;32.51;44.63;99979.70;1781003;78;20094;-69
2021/07/16 06:37:23;;;;;;;;;;;;;;;32.66;43.97;99981.98;1808581;79;21139;-71
2021/07/16 06:39:50;;;;;;;;;;;;;;;32.79;44.11;99984.51;1790277;79;20128;-71
2021/07/16 06:42:18;;;;;;;;;;;;;;;33.01;44.03;99980.17;1782207;80;20118;-71
2021/07/16 06:44:52;;;;;;;;;;;;;;;33.16;42.55;99970.80;1783404;79;20458;-70
2021/07/16 06:47:20;;;;;;;;;;;;;;;33.17;42.45;99981.89;1793800;79;20110;-70
2021/07/16 06:49:48;;;;;;;;;;;;;;;33.12;42.50;99983.94;1779241;79;20503;-72
2021/07/16 06:52:17;;;;;;;;;;;;;;;33.07;43.20;99992.73;1776849;78;20141;-71
2021/07/16 06:54:44;;;;;;;;;;;;;;;33.12;42.88;99991.51;1782907;79;20170;-70
2021/07/16 06:57:11;;;;;;;;;;;;;;;33.06;42.48;99988.92;1785518;79;20477;-68
2021/07/16 06:59:38;;;;;;;;;;;;;;;32.92;43.15;99992.36;1790483;79;20102;-70
2021/07/16 07:02:06;;;;;;;;;;;;;;;32.99;42.82;99984.98;1765643;79;21074;-70
2021/07/16 07:04:34;;;;;;;;;;;;;;;33.20;42.65;99981.39;1769403;79;20392;-70
2021/07/16 07:07:04;;;;;;;;;;;;;;;33.29;42.08;99975.97;1778058;79;20153;-68
2021/07/16 07:09:31;;;;;;;;;;;;;;;33.21;42.14;99978.98;1778347;79;20157;-69
2021/07/16 07:11:59;;;;;;;;;;;;;;;33.28;40.83;99979.72;1774735;78;20209;-69
2021/07/16 07:14:26;;;;;;;;;;;;;;;33.26;41.54;99972.36;1780585;79;21766;-69
2021/07/16 07:16:54;;;;;;;;;;;;;;;33.36;41.84;99985.59;1784973;79;20589;-72
2021/07/16 07:19:23;;;;;;;;;;;;;;;33.39;41.48;99980.25;1799258;79;20184;-68
2021/07/16 07:21:54;;;;;;;;;;;;;;;33.40;42.62;99989.47;1775802;80;20110;-69
2021/07/16 07:24:21;;;;;;;;;;;;;;;33.54;41.74;99989.22;1788072;79;20426;-71
2021/07/16 07:26:48;;;;;;;;;;;;;;;33.49;41.60;99989.93;1781580;79;21814;-70
2021/07/16 07:29:15;;;;;;;;;;;;;;;33.40;42.23;99983.24;1786380;79;20167;-72
2021/07/16 07:31:41;;;;;;;;;;;;;;;33.51;42.30;99990.52;1795177;79;20408;-68
2021/07/16 07:34:11;;;;;;;;;;;;;;;33.63;42.13;99991.30;1795654;79;20163;-70
2021/07/16 07:36:40;;;;;;;;;;;;;;;33.64;42.34;99983.48;1770548;79;20106;-72
2021/07/16 07:39:07;;;;;;;;;;;;;;;33.56;42.35;99989.28;1757358;80;21124;-73
2021/07/16 07:41:35;;;;;;;;;;;;;;;33.47;41.83;99987.99;1780640;80;20083;-72
2021/07/16 07:44:01;;;;;;;;;;;;;;;33.47;42.38;99989.34;1775456;78;20137;-72
2021/07/16 07:46:28;;;;;;;;;;;;;;;33.59;42.31;99988.77;1779906;78;20119;-69
2021/07/16 07:48:56;;;;;;;;;;;;;;;33.78;42.33;99986.22;1799078;78;20152;-69
2021/07/16 07:51:23;;;;;;;;;;;;;;;33.83;41.54;99993.64;1799737;79;21089;-71
2021/07/16 07:53:50;;;;;;;;;;;;;;;33.95;40.83;99989.04;1802186;78;20126;-71
2021/07/16 07:56:17;;;;;;;;;;;;;;;33.92;40.55;99993.56;1807383;78;20187;-72
2021/07/16 07:58:44;;;;;;;;;;;;;;;33.96;41.01;99990.68;1810325;78;20133;-72
2021/07/16 08:01:12;;;;;;;;;;;;;;;34.02;40.22;99991.57;1814048;78;20091;-70
2021/07/16 08:03:38;;;;;;;;;;;;;;;34.07;40.28;99985.73;1811730;78;21096;-71
2021/07/16 08:06:06;;;;;;;;;;;;;;;34.16;40.21;99989.41;1801174;78;20111;-68
2021/07/16 08:08:32;;;;;;;;;;;;;;;34.12;41.13;99988.55;1798924;80;20385;-69
2021/07/16 08:11:04;;;;;;;;;;;;;;;34.22;40.43;99989.27;1802948;78;20094;-66
2021/07/16 08:13:33;;;;;;;;;;;;;;;34.29;39.83;99996.71;1799126;78;20129;-69
2021/07/16 08:16:01;;;;;;;;;;;;;;;34.22;40.53;99998.73;1796021;78;20837;-69
2021/07/16 08:18:29;;;;;;;;;;;;;;;34.04;39.93;99998.38;1805356;78;20172;-69
2021/07/16 08:20:56;;;;;;;;;;;;;;;33.94;40.73;100000.91;1796162;78;20143;-68
2021/07/16 08:23:22;;;;;;;;;;;;;;;34.06;40.43;99998.14;1797296;78;20395;-68
2021/07/16 08:25:49;;;;;;;;;;;;;;;34.12;40.35;99998.53;1804142;78;20113;-67
2021/07/16 08:28:16;;;;;;;;;;;;;;;34.09;40.81;100002.53;1805622;78;21036;-69
2021/07/16 08:30:43;;;;;;;;;;;;;;;33.99;41.09;100000.19;1808197;78;20462;-67
2021/07/16 08:33:11;;;;;;;;;;;;;;;33.97;40.84;99999.08;1801674;78;20094;-68
2021/07/16 08:35:43;;;;;;;;;;;;;;;33.99;40.89;100005.59;1793428;78;20182;-69
2021/07/16 08:38:10;;;;;;;;;;;;;;;34.03;40.78;100007.55;1773184;80;20487;-67
2021/07/16 08:40:38;;;;;;;;;;;;;;;34.03;41.26;100008.08;1794901;78;21863;-67
2021/07/16 08:43:06;;;;;;;;;;;;;;;33.93;40.65;100003.84;1796607;78;20144;-69
2021/07/16 08:45:33;;;;;;;;;;;;;;;33.64;40.64;100014.54;1791814;78;20258;-66
2021/07/16 08:48:00;;;;;;;;;;;;;;;33.41;41.31;100010.00;1797363;78;20170;-69
2021/07/16 08:50:27;;;;;;;;;;;;;;;33.20;41.86;100008.38;1805877;78;20110;-69
2021/07/16 08:53:01;;;;;;;;;;;;;;;33.17;42.21;100015.62;1795177;78;21083;-69
2021/07/16 08:55:24;;;;;;;;;;;;;;;33.17;42.34;100012.92;1752985;81;20844;-69
2021/07/16 08:57:51;;;;;;;;;;;;;;;33.10;42.41;100009.81;1751376;81;20121;-67
2021/07/16 09:00:18;;;;;;;;;;;;;;;33.05;42.71;100010.21;1749111;80;20132;-68
2021/07/16 09:02:54;;;;;;;;;;;;;;;33.04;42.81;100010.73;1747908;81;20156;-70
2021/07/16 09:05:32;;;;;;;;;;;;;;;33.03;42.96;100015.02;1742235;80;21126;-72
2021/07/16 09:08:01;;;;;;;;;;;;;;;32.89;42.39;100008.19;1757119;81;20136;-72
2021/07/16 09:10:28;;;;;;;;;;;;;;;32.73;43.28;100009.67;1754472;81;20487;-70
2021/07/16 09:12:58;;;;;;;;;;;;;;;32.69;43.77;100013.87;1747559;81;20779;-71
2021/07/16 09:15:27;;;;;;;;;;;;;;;32.56;44.22;100003.28;1749493;81;20152;-69
2021/07/16 09:18:34;;;;;;;;;;;;;;;32.52;44.41;100008.84;1760769;81;21129;-69
2021/07/16 09:21:05;;;;;;;;;;;;;;;32.51;44.53;100008.54;1685980;85;20092;-70
2021/07/16 09:23:46;;;;;;;;;;;;;;;32.51;44.57;100004.50;1684198;85;20124;-68
2021/07/16 09:26:15;;;;;;;;;;;;;;;32.48;44.55;100003.91;1702336;83;20185;-69
2021/07/16 09:28:46;;;;;;;;;;;;;;;32.31;44.96;100012.36;1714279;83;20096;-66
2021/07/16 09:31:19;;;;;;;;;;;;;;;32.09;45.56;100008.46;1714548;83;22247;-68
2021/07/16 09:33:54;;;;;;;;;;;;;;;31.95;45.53;100004.31;1712016;83;20469;-73
2021/07/16 09:36:28;;;;;;;;;;;;;;;31.92;46.41;99995.33;1712513;83;20479;-70
2021/07/16 09:39:09;;;;;;;;;;;;;;;31.88;46.29;99994.14;1716509;82;20168;-71
2021/07/16 09:41:50;;;;;;;;;;;;;;;31.81;45.51;99997.73;1713124;83;20149;-71
2021/07/16 09:44:28;;;;;;;;;;;;;;;31.66;45.84;99984.30;1719252;82;21188;-70
2021/07/16 09:47:12;;;;;;;;;;;;;;;31.51;46.56;99986.04;1719138;83;20125;-71
2021/07/16 09:49:41;;;;;;;;;;;;;;;31.39;46.78;99986.47;1717151;83;20121;-66
2021/07/16 09:52:10;;;;;;;;;;;;;;;31.31;46.62;99986.75;1717134;83;20133;-70
2021/07/16 09:54:37;;;;;;;;;;;;;;;31.13;47.02;99983.01;1720233;83;20443;-67
2021/07/16 09:57:05;;;;;;;;;;;;;;;31.00;47.18;99981.73;1714337;83;21050;-69
2021/07/16 09:59:36;;;;;;;;;;;;;;;30.93;47.68;99977.45;1716752;83;20157;-69
2021/07/16 10:02:03;;;;;;;;;;;;;;;30.90;47.87;99978.72;1722163;83;20184;-68
2021/07/16 10:04:33;;;;;;;;;;;;;;;30.89;48.48;99983.80;1719174;83;20196;-70
2021/07/16 10:07:00;;;;;;;;;;;;;;;30.83;48.67;99980.11;1718536;83;20483;-71
2021/07/16 10:09:28;;;;;;;;;;;;;;;30.80;49.08;99981.89;1719036;83;20125;-69
2021/07/16 10:11:57;;;;;;;;;;;;;;;30.74;49.19;99981.97;1719075;83;20152;-69
2021/07/16 10:14:24;;;;;;;;;;;;;;;30.66;48.66;99980.89;1718974;83;20153;-69
2021/07/16 10:16:53;;;;;;;;;;;;;;;30.64;49.05;99980.28;1718349;83;20171;-69
2021/07/16 10:19:20;;;;;;;;;;;;;;;30.63;49.38;99979.97;1723501;82;20111;-69
2021/07/16 10:21:47;;;;;;;;;;;;;;;30.65;49.32;99973.86;1741236;82;21150;-69
2021/07/16 10:24:16;;;;;;;;;;;;;;;30.69;49.18;99970.52;1743441;82;20122;-69
2021/07/16 10:26:43;;;;;;;;;;;;;;;30.76;48.38;99975.34;1713260;82;20098;-69
2021/07/16 10:29:35;;;;;;;;;;;;;;;30.75;47.78;99974.20;1718043;82;20110;-69
2021/07/16 10:32:06;;;;;;;;;;;;;;;30.68;47.22;99974.77;1726570;82;20117;-69
2021/07/16 10:34:36;;;;;;;;;;;;;;;30.60;47.67;99981.23;1718579;82;21080;-69
2021/07/16 10:37:05;;;;;;;;;;;;;;;30.59;47.40;99976.07;1731583;82;20168;-68
2021/07/16 10:39:52;;;;;;;;;;;;;;;30.60;47.24;99978.55;1737421;82;20083;-69
2021/07/16 10:42:34;;;;;;;;;;;;;;;30.64;47.51;99973.04;1734782;82;20119;-68
2021/07/16 10:45:03;;;;;;;;;;;;;;;30.69;47.34;99975.90;1688181;84;20105;-69
2021/07/16 10:47:47;;;;;;;;;;;;;;;30.70;47.12;99968.14;1682017;84;21135;-69
2021/07/16 10:50:17;;;;;;;;;;;;;;;30.75;47.30;99962.94;1683214;84;20122;-68
2021/07/16 10:52:51;;;;;;;;;;;;;;;30.81;46.80;99958.52;1677735;84;20084;-68
2021/07/16 10:55:19;;;;;;;;;;;;;;;30.83;46.97;99958.59;1679471;85;20122;-68
2021/07/16 10:57:48;;;;;;;;;;;;;;;30.83;46.00;99959.12;1685664;85;20127;-69
2021/07/16 11:00:38;;;;;;;;;;;;;;;30.76;45.72;99958.38;1679441;84;21655;-70
2021/07/16 11:03:10;;;;;;;;;;;;;;;30.74;46.04;99955.09;1680626;85;20426;-69
2021/07/16 11:05:45;;;;;;;;;;;;;;;30.79;47.13;99963.32;1681622;85;20102;-68
2021/07/16 11:08:32;;;;;;;;;;;;;;;30.81;46.45;99949.11;1683730;84;20190;-69
2021/07/16 11:11:04;;;;;;;;;;;;;;;30.81;46.09;99958.00;1683222;84;20162;-69
2021/07/16 11:13:54;;;;;;;;;;;;;;;30.79;44.06;99958.73;1672338;84;21907;-70
2021/07/16 11:16:28;;;;;;;;;;;;;;;30.78;43.34;99954.95;1680126;84;20146;-68
2021/07/16 11:19:03;;;;;;;;;;;;;;;30.78;44.04;99946.37;1660258;85;20139;-69
2021/07/16 11:21:42;;;;;;;;;;;;;;;30.81;44.27;99943.73;1677400;84;20186;-69
2021/07/16 11:24:24;;;;;;;;;;;;;;;30.88;43.29;99949.05;1685028;84;20123;-68
2021/07/16 11:27:15;;;;;;;;;;;;;;;30.91;43.34;99945.93;1684603;84;20124;-68
2021/07/16 11:29:45;;;;;;;;;;;;;;;30.92;42.58;99944.36;1686893;84;20104;-68
2021/07/16 11:32:22;;;;;;;;;;;;;;;30.93;42.59;99935.78;1677185;84;20201;-71
2021/07/16 11:34:57;;;;;;;;;;;;;;;30.95;42.68;99935.03;1681699;85;20390;-70
2021/07/16 11:37:29;;;;;;;;;;;;;;;30.95;43.86;99934.52;1668434;85;20106;-69
2021/07/16 11:40:08;;;;;;;;;;;;;;;30.99;43.86;99938.41;1669752;84;21106;-70
2021/07/16 11:42:40;;;;;;;;;;;;;;;31.06;42.81;99931.11;1679443;84;20154;-68
2021/07/16 11:45:11;;;;;;;;;;;;;;;31.09;42.55;99933.35;1686487;84;20155;-70
2021/07/16 11:47:39;;;;;;;;;;;;;;;31.12;41.27;99938.81;1682565;84;20127;-70
2021/07/16 11:50:08;;;;;;;;;;;;;;;31.10;41.70;99937.69;1674908;85;20124;-70
2021/07/16 11:52:35;;;;;;;;;;;;;;;31.09;41.52;99933.88;1664475;85;20812;-70
2021/07/16 11:55:18;;;;;;;;;;;;;;;31.04;42.08;99929.16;1712820;83;20204;-70
2021/07/16 11:57:50;;;;;;;;;;;;;;;31.04;42.56;99926.47;1711935;83;20287;-70
2021/07/16 12:00:18;;;;;;;;;;;;;;;31.02;42.88;99931.25;1689272;84;20111;-71
2021/07/16 12:02:45;;;;;;;;;;;;;;;31.02;43.24;99923.70;1690546;84;20162;-72
2021/07/16 12:05:15;;;;;;;;;;;;;;;31.04;43.62;99924.30;1687899;84;21135;-68
2021/07/16 12:07:48;;;;;;;;;;;;;;;31.04;43.40;99915.71;1684542;84;20108;-69
2021/07/16 12:10:15;;;;;;;;;;;;;;;31.10;43.14;99920.73;1682720;84;20087;-67
2021/07/16 12:12:43;;;;;;;;;;;;;;;31.14;43.17;99917.92;1678943;84;20124;-68
2021/07/16 12:15:13;;;;;;;;;;;;;;;31.19;43.16;99932.05;1680055;84;20154;-70
2021/07/16 12:17:41;;;;;;;;;;;;;;;31.20;42.58;99922.91;1686186;84;22176;-68
2021/07/16 12:20:13;;;;;;;;;;;;;;;31.19;43.00;99923.98;1670670;84;20134;-68
2021/07/16 12:22:43;;;;;;;;;;;;;;;31.19;43.43;99924.81;1681517;84;20124;-69
2021/07/16 12:25:11;;;;;;;;;;;;;;;31.21;43.53;99921.34;1684240;84;20151;-69
2021/07/16 12:27:39;;;;;;;;;;;;;;;31.24;43.24;99920.08;1685556;84;20238;-70
2021/07/16 12:30:11;;;;;;;;;;;;;;;31.27;43.03;99926.36;1695782;84;21088;-69
2021/07/16 12:32:40;;;;;;;;;;;;;;;31.27;43.05;99926.36;1673018;84;20162;-71
2021/07/16 12:35:21;;;;;;;;;;;;;;;31.28;43.45;99924.79;1676657;85;20671;-70
2021/07/16 12:37:50;;;;;;;;;;;;;;;31.32;43.33;99922.48;1681062;84;20199;-71
2021/07/16 12:40:18;;;;;;;;;;;;;;;31.36;43.74;99929.06;1684965;84;20421;-70
2021/07/16 12:43:16;;;;;;;;;;;;;;;31.40;43.29;99924.87;1682292;84;21790;-72
2021/07/16 12:45:48;;;;;;;;;;;;;;;31.43;43.60;99923.09;1683011;84;20208;-74
2021/07/16 12:48:25;;;;;;;;;;;;;;;31.47;44.03;99919.72;1682835;84;20210;-72
2021/07/16 12:50:50;;;;;;;;;;;;;;;31.54;43.00;99923.69;1673873;84;20136;-70
2021/07/16 12:53:37;;;;;;;;;;;;;;;31.56;42.98;99920.25;1680735;84;20087;-70
2021/07/16 12:56:21;;;;;;;;;;;;;;;31.58;42.19;99917.33;1672666;84;21109;-70
2021/07/16 12:58:49;;;;;;;;;;;;;;;31.60;41.80;99914.69;1685166;84;20135;-71
2021/07/16 13:01:28;;;;;;;;;;;;;;;31.62;42.54;99913.94;1686404;84;20146;-70
2021/07/16 13:03:55;;;;;;;;;;;;;;;31.65;42.37;99913.48;1686715;84;20170;-70
2021/07/16 13:06:28;;;;;;;;;;;;;;;31.67;42.49;99910.08;1678308;84;20157;-70
2021/07/16 13:09:21;;;;;;;;;;;;;;;31.70;41.83;99908.28;1681227;84;20951;-69
2021/07/16 13:11:59;;;;;;;;;;;;;;;31.70;41.79;99903.42;1684222;84;20150;-69
2021/07/16 13:14:29;;;;;;;;;;;;;;;31.69;42.41;99906.63;1685118;84;20128;-70
2021/07/16 13:17:21;;;;;;;;;;;;;;;31.67;42.50;99908.73;1682219;84;20165;-69
2021/07/16 13:20:04;;;;;;;;;;;;;;;31.68;41.82;99906.86;1682443;84;20139;-69
2021/07/16 13:22:34;;;;;;;;;;;;;;;31.63;42.28;99908.85;1682240;84;21865;-70
2021/07/16 13:25:02;;;;;;;;;;;;;;;31.61;42.37;99905.56;1685520;84;20162;-69
2021/07/16 13:27:28;;;;;;;;;;;;;;;31.63;42.40;99904.81;1677865;84;20103;-70
2021/07/16 13:29:55;;;;;;;;;;;;;;;31.68;42.49;99902.30;1677343;85;20147;-70
2021/07/16 13:32:23;;;;;;;;;;;;;;;31.72;42.40;99896.76;1677868;85;20182;-71
2021/07/16 13:34:50;;;;;;;;;;;;;;;31.75;42.90;99895.48;1672474;85;21143;-72
2021/07/16 13:37:17;;;;;;;;;;;;;;;31.79;42.60;99896.67;1669923;85;20108;-70
2021/07/16 13:39:46;;;;;;;;;;;;;;;31.83;42.30;99888.44;1672098;85;20477;-70
2021/07/16 13:42:12;;;;;;;;;;;;;;;31.85;42.50;99890.91;1675279;84;20425;-68
2021/07/16 13:44:40;;;;;;;;;;;;;;;31.88;42.16;99888.58;1678033;84;20117;-67
2021/07/16 13:47:06;;;;;;;;;;;;;;;31.87;41.88;99889.63;1657482;85;21140;-69
2021/07/16 13:49:33;;;;;;;;;;;;;;;31.86;41.86;99889.34;1676324;85;20422;-71
2021/07/16 13:52:00;;;;;;;;;;;;;;;31.82;42.00;99890.31;1659451;85;20108;-72
2021/07/16 13:54:27;;;;;;;;;;;;;;;31.80;42.27;99888.90;1671804;85;20124;-69
2021/07/16 13:56:54;;;;;;;;;;;;;;;31.80;42.64;99884.86;1661763;85;20174;-69
